Time;durP1;ratioP1;P1;durP2;ratioP2;P2;SDS_P1;SDS_P2;PMS_P1;PMS_P2;Temp;Humidity;BMP_temperature;BMP_pressure;BME280_temperature;BME280_humidity;BME280_pressure;Samples;Min_cycle;Max_cycle;Signal;HPM_P1;HPM_P2
2022/10/27 00:01:26;;;;;;;15.83;10.03;;;10.90;99.90;;;;;;5113448;28;20203;-72
2022/10/27 00:03:53;;;;;;;17.33;9.87;;;10.90;99.90;;;;;;5114209;27;20561;-72
2022/10/27 00:06:20;;;;;;;15.50;9.70;;;10.90;99.90;;;;;;5113419;28;20221;-72
2022/10/27 00:08:49;;;;;;;18.50;9.83;;;10.90;99.90;;;;;;5113689;28;20204;-74
2022/10/27 00:11:16;;;;;;;16.73;9.17;;;10.90;99.90;;;;;;5113367;28;20210;-73
2022/10/27 00:13:43;;;;;;;16.40;9.97;;;10.90;99.90;;;;;;5113554;28;20584;-72
2022/10/27 00:16:14;;;;;;;13.43;9.23;;;10.90;99.90;;;;;;5113730;28;20696;-74
2022/10/27 00:18:41;;;;;;;18.87;9.97;;;10.90;99.90;;;;;;5114329;27;20219;-73
2022/10/27 00:21:09;;;;;;;15.83;10.43;;;10.90;99.90;;;;;;5114171;27;20223;-73
2022/10/27 00:23:37;;;;;;;14.53;9.67;;;10.90;99.90;;;;;;5116629;27;20221;-73
2022/10/27 00:26:06;;;;;;;18.53;10.33;;;11.00;99.90;;;;;;5121368;27;20240;-73
2022/10/27 00:28:34;;;;;;;18.43;10.00;;;10.90;99.90;;;;;;5133587;27;20198;-72
2022/10/27 00:31:02;;;;;;;16.80;10.80;;;10.90;99.90;;;;;;5133732;27;20209;-74
2022/10/27 00:33:30;;;;;;;15.23;10.03;;;10.90;99.90;;;;;;5132696;27;20245;-73
2022/10/27 00:35:56;;;;;;;17.90;9.97;;;10.90;99.90;;;;;;5133547;27;20222;-73
2022/10/27 00:38:24;;;;;;;18.97;10.27;;;10.90;99.90;;;;;;5120678;27;20218;-74
2022/10/27 00:40:50;;;;;;;15.90;9.83;;;10.90;99.90;;;;;;5112961;28;20213;-73
2022/10/27 00:43:27;;;;;;;18.13;9.67;;;10.90;99.90;;;;;;5112938;28;20211;-72
2022/10/27 00:45:55;;;;;;;15.53;9.93;;;10.80;99.90;;;;;;5113188;28;20203;-72
2022/10/27 00:48:24;;;;;;;19.43;9.93;;;10.90;99.90;;;;;;5112643;28;20200;-73
2022/10/27 00:50:51;;;;;;;12.77;9.27;;;10.90;99.90;;;;;;5112652;28;20203;-72
2022/10/27 00:53:18;;;;;;;13.27;9.37;;;10.90;99.90;;;;;;5112211;28;20210;-72
2022/10/27 00:55:45;;;;;;;17.30;9.53;;;11.00;99.90;;;;;;5113600;28;20702;-72
2022/10/27 00:58:18;;;;;;;17.50;9.27;;;11.00;99.90;;;;;;5112771;28;20214;-72
2022/10/27 01:00:47;;;;;;;14.40;9.67;;;11.00;99.90;;;;;;5112878;28;20191;-72
2022/10/27 01:03:18;;;;;;;15.53;9.87;;;11.00;99.90;;;;;;5114797;27;20575;-74
2022/10/27 01:05:45;;;;;;;17.70;9.47;;;11.00;99.90;;;;;;5101567;27;20191;-72
2022/10/27 01:08:13;;;;;;;13.67;9.13;;;11.00;99.90;;;;;;5093125;28;20573;-73
2022/10/27 01:10:39;;;;;;;17.70;9.47;;;11.00;99.90;;;;;;5093186;28;20203;-74
2022/10/27 01:13:06;;;;;;;15.10;9.60;;;11.00;99.90;;;;;;5112496;28;20203;-73
2022/10/27 01:15:39;;;;;;;14.83;9.50;;;11.10;99.90;;;;;;5112364;28;20226;-73
2022/10/27 01:18:15;;;;;;;16.00;9.90;;;11.00;99.90;;;;;;5111060;28;20225;-74
2022/10/27 01:21:22;;;;;;;14.80;9.07;;;11.00;99.90;;;;;;5112412;28;20223;-73
2022/10/27 01:24:07;;;;;;;19.70;10.13;;;11.00;99.90;;;;;;5112288;28;20207;-71
2022/10/27 01:26:46;;;;;;;18.40;10.03;;;11.00;99.90;;;;;;5112434;28;20183;-70
2022/10/27 01:29:41;;;;;;;14.90;9.47;;;10.90;99.90;;;;;;5112044;28;20187;-71
2022/10/27 01:32:23;;;;;;;17.30;10.40;;;10.90;99.90;;;;;;5110938;28;20211;-70
2022/10/27 01:34:55;;;;;;;18.57;10.20;;;10.90;99.90;;;;;;5112154;28;20256;-69
2022/10/27 01:37:26;;;;;;;16.73;10.03;;;10.90;99.90;;;;;;5112152;28;20532;-70
2022/10/27 01:39:59;;;;;;;15.00;9.77;;;10.90;99.90;;;;;;5112176;28;20195;-70
2022/10/27 01:42:32;;;;;;;14.40;9.57;;;10.90;99.90;;;;;;5112354;28;20191;-74
2022/10/27 01:45:00;;;;;;;14.53;9.03;;;10.90;99.90;;;;;;5114928;28;20334;-73
2022/10/27 01:47:29;;;;;;;19.47;10.47;;;10.90;99.90;;;;;;5113807;28;20203;-73
2022/10/27 01:49:57;;;;;;;15.27;9.23;;;11.00;99.90;;;;;;5116600;28;20203;-74
2022/10/27 01:52:50;;;;;;;14.60;9.77;;;10.90;99.90;;;;;;5114962;28;20209;-73
2022/10/27 01:55:23;;;;;;;16.33;9.63;;;10.90;99.90;;;;;;5067990;28;20223;-73
2022/10/27 01:58:09;;;;;;;23.57;10.33;;;10.90;99.90;;;;;;5116873;28;20562;-72
2022/10/27 02:00:42;;;;;;;14.23;10.57;;;10.90;99.90;;;;;;5116024;28;20195;-73
2022/10/27 02:03:15;;;;;;;17.53;9.40;;;10.90;99.90;;;;;;5116274;28;20196;-72
2022/10/27 02:05:49;;;;;;;17.37;9.53;;;10.80;99.90;;;;;;5116798;28;20184;-72
2022/10/27 02:08:27;;;;;;;14.93;9.50;;;10.90;99.90;;;;;;5113526;28;20203;-74
2022/10/27 02:10:58;;;;;;;18.07;10.07;;;10.90;99.90;;;;;;5105467;28;20206;-74
2022/10/27 02:13:26;;;;;;;15.10;9.23;;;10.90;99.90;;;;;;5095933;28;20657;-75
2022/10/27 02:15:57;;;;;;;15.33;9.33;;;10.90;99.90;;;;;;5095605;28;20224;-74
2022/10/27 02:18:28;;;;;;;13.77;9.17;;;10.90;99.90;;;;;;5095458;28;20192;-75
2022/10/27 02:20:59;;;;;;;16.10;8.87;;;11.00;99.90;;;;;;5095187;28;20590;-73
2022/10/27 02:23:26;;;;;;;14.87;9.17;;;11.00;99.90;;;;;;5096774;28;20546;-72
2022/10/27 02:43:49;;;;;;;15.47;8.87;;;10.90;99.90;;;;;;5025784;28;20551;-70
2022/10/27 02:46:16;;;;;;;16.53;9.33;;;11.00;99.90;;;;;;5025994;28;20202;-71
2022/10/27 02:48:43;;;;;;;15.20;8.63;;;11.10;99.90;;;;;;5013519;28;20210;-74
2022/10/27 02:51:10;;;;;;;13.40;8.80;;;11.10;99.90;;;;;;5007480;28;20308;-72
2022/10/27 02:53:37;;;;;;;14.97;8.63;;;11.10;99.90;;;;;;5007343;28;20304;-73
2022/10/27 02:56:04;;;;;;;14.80;8.93;;;11.10;99.90;;;;;;5008055;28;20206;-73
2022/10/27 02:58:31;;;;;;;13.37;8.53;;;11.10;99.90;;;;;;5016794;28;20203;-71
2022/10/27 03:00:59;;;;;;;15.63;8.43;;;11.20;99.90;;;;;;5026808;28;20206;-72
2022/10/27 03:03:26;;;;;;;13.90;7.87;;;11.10;99.90;;;;;;5027072;28;20667;-71
2022/10/27 03:05:53;;;;;;;18.70;9.37;;;11.20;99.90;;;;;;5024817;28;20206;-73
2022/10/27 03:08:19;;;;;;;14.93;8.93;;;11.20;99.90;;;;;;5026746;28;20779;-71
2022/10/27 03:10:46;;;;;;;16.87;9.70;;;11.30;99.90;;;;;;5026042;28;20212;-71
2022/10/27 03:13:13;;;;;;;14.83;9.47;;;11.30;99.90;;;;;;5015358;28;20226;-72
2022/10/27 03:15:40;;;;;;;14.10;8.70;;;11.30;99.90;;;;;;5006171;28;20209;-72
2022/10/27 03:18:08;;;;;;;17.33;9.13;;;11.30;99.90;;;;;;5005952;28;20202;-72
2022/10/27 03:20:35;;;;;;;15.00;9.57;;;11.30;99.90;;;;;;5006235;28;20294;-73
2022/10/27 03:23:01;;;;;;;16.73;9.40;;;11.30;99.90;;;;;;5010988;28;20198;-73
2022/10/27 03:25:28;;;;;;;17.60;9.70;;;11.30;99.90;;;;;;5026567;28;20210;-73
2022/10/27 03:27:55;;;;;;;16.77;9.83;;;11.30;99.90;;;;;;5025483;28;20207;-73
2022/10/27 03:30:22;;;;;;;14.80;9.13;;;11.30;99.90;;;;;;5025821;28;20205;-72
2022/10/27 03:32:51;;;;;;;17.90;8.93;;;11.30;99.90;;;;;;5019791;28;20235;-72
2022/10/27 03:35:20;;;;;;;14.47;8.77;;;11.30;99.90;;;;;;5006397;28;20573;-72
2022/10/27 03:37:55;;;;;;;16.97;9.30;;;11.40;99.90;;;;;;5005442;28;20207;-72
2022/10/27 03:40:21;;;;;;;14.80;9.20;;;11.40;99.90;;;;;;5005730;28;20195;-72
2022/10/27 03:42:48;;;;;;;13.27;9.03;;;11.40;99.90;;;;;;5002924;28;20306;-72
2022/10/27 03:45:15;;;;;;;15.13;9.33;;;11.40;99.90;;;;;;4993185;28;20203;-70
2022/10/27 03:47:42;;;;;;;18.00;9.07;;;11.50;99.90;;;;;;4992438;28;20207;-72
2022/10/27 06:28:06;;;;;;;18.90;10.27;;;11.00;99.90;;;;;;5026357;27;2062402;-71
2022/10/27 06:30:33;;;;;;;22.10;9.70;;;11.00;99.90;;;;;;5088448;28;20228;-71
2022/10/27 06:33:00;;;;;;;15.47;8.27;;;11.10;99.90;;;;;;5088929;28;20725;-71
2022/10/27 06:35:27;;;;;;;17.37;7.90;;;11.10;99.90;;;;;;5088569;28;20204;-72
2022/10/27 06:37:53;;;;;;;13.90;8.03;;;11.10;99.90;;;;;;5088620;28;20200;-70
2022/10/27 06:40:20;;;;;;;19.80;8.20;;;11.10;99.90;;;;;;5088296;28;20218;-71
2022/10/27 06:42:49;;;;;;;16.07;8.37;;;11.10;99.90;;;;;;5099366;28;20557;-70
2022/10/27 06:45:17;;;;;;;17.80;8.27;;;11.10;99.90;;;;;;5108801;28;20598;-71
2022/10/27 06:47:44;;;;;;;18.53;8.17;;;11.20;99.90;;;;;;5108757;28;20207;-73
2022/10/27 06:50:12;;;;;;;12.87;7.67;;;11.20;99.90;;;;;;5108526;28;20833;-71
2022/10/27 06:52:39;;;;;;;15.63;7.67;;;11.20;99.90;;;;;;5087552;28;20684;-72
2022/10/27 06:55:08;;;;;;;15.90;8.50;;;11.30;99.90;;;;;;5087832;28;20211;-70
2022/10/27 06:57:40;;;;;;;13.80;7.87;;;11.30;99.90;;;;;;5088128;28;20304;-70
2022/10/27 07:00:08;;;;;;;14.40;8.47;;;11.30;99.90;;;;;;5081743;28;20761;-71
2022/10/27 07:02:37;;;;;;;17.43;8.00;;;11.30;99.90;;;;;;5068046;28;20582;-71
2022/10/27 07:05:04;;;;;;;14.40;8.30;;;11.30;99.90;;;;;;5067223;28;20208;-70
2022/10/27 07:07:31;;;;;;;13.83;8.33;;;11.40;99.90;;;;;;5067434;28;20577;-71
2022/10/27 07:09:58;;;;;;;14.40;7.33;;;11.40;99.90;;;;;;5084820;28;20220;-72
2022/10/27 07:12:25;;;;;;;13.43;8.10;;;11.40;99.90;;;;;;5074469;28;20235;-71
2022/10/27 07:14:52;;;;;;;13.20;7.47;;;11.50;99.90;;;;;;5072625;28;20209;-71
2022/10/27 07:17:18;;;;;;;13.23;6.87;;;11.40;99.90;;;;;;5054777;28;20560;-72
2022/10/27 07:19:47;;;;;;;18.80;7.73;;;11.50;99.90;;;;;;5054745;28;20624;-71
2022/10/27 07:22:14;;;;;;;18.33;8.27;;;11.60;99.90;;;;;;5053965;28;20201;-73
2022/10/27 07:24:40;;;;;;;19.90;8.20;;;11.50;99.90;;;;;;5055131;28;20259;-71
2022/10/27 07:27:07;;;;;;;22.90;8.60;;;11.50;99.90;;;;;;5067983;28;20612;-72
2022/10/27 07:29:34;;;;;;;18.87;8.03;;;11.50;99.90;;;;;;5074156;28;20745;-71
2022/10/27 07:32:01;;;;;;;17.07;8.13;;;11.50;99.90;;;;;;5065397;28;20227;-72
2022/10/27 07:34:28;;;;;;;15.90;9.33;;;11.60;99.90;;;;;;5054524;28;20663;-71
2022/10/27 07:36:56;;;;;;;21.00;8.37;;;11.50;99.90;;;;;;5053762;28;20651;-72
2022/10/27 07:39:23;;;;;;;19.10;8.60;;;11.50;99.90;;;;;;5054623;28;20709;-72
2022/10/27 07:41:49;;;;;;;20.13;8.93;;;11.50;99.90;;;;;;5054368;28;20208;-72
2022/10/27 07:44:16;;;;;;;14.07;8.30;;;11.50;99.90;;;;;;5054308;28;20224;-72
2022/10/27 07:46:43;;;;;;;17.40;7.70;;;11.60;99.90;;;;;;5054067;28;20209;-71
2022/10/27 07:49:10;;;;;;;14.57;7.70;;;11.60;99.90;;;;;;5053390;28;20228;-72
2022/10/27 07:51:36;;;;;;;19.60;8.47;;;11.60;99.90;;;;;;5054046;28;20212;-74
2022/10/27 07:54:05;;;;;;;15.60;8.53;;;11.70;99.90;;;;;;5070793;28;20571;-72
2022/10/27 07:56:32;;;;;;;14.83;8.10;;;11.70;99.90;;;;;;5074329;28;20205;-71
2022/10/27 07:58:58;;;;;;;26.70;9.80;;;11.70;99.90;;;;;;5074241;28;20211;-73
2022/10/27 08:01:26;;;;;;;20.70;8.73;;;11.80;99.90;;;;;;5061465;28;20690;-73
2022/10/27 08:03:53;;;;;;;13.90;7.93;;;11.80;99.90;;;;;;5054471;28;20575;-71
2022/10/27 08:06:20;;;;;;;12.67;8.00;;;11.80;99.90;;;;;;5053327;28;20229;-71
2022/10/27 08:08:47;;;;;;;15.07;7.60;;;11.90;99.90;;;;;;5053828;28;20286;-71
2022/10/27 08:11:15;;;;;;;13.67;7.47;;;11.90;99.90;;;;;;5053388;28;20221;-70
2022/10/27 08:13:42;;;;;;;13.53;7.40;;;12.00;99.90;;;;;;5053367;28;20201;-71
2022/10/27 08:16:09;;;;;;;13.37;6.90;;;12.10;99.90;;;;;;5053231;28;20217;-72
2022/10/27 08:18:35;;;;;;;13.67;7.17;;;12.10;99.90;;;;;;5066926;28;20205;-71
2022/10/27 08:21:04;;;;;;;13.03;7.13;;;12.10;99.90;;;;;;5063415;28;20208;-72
2022/10/27 08:23:31;;;;;;;11.70;6.53;;;12.20;99.90;;;;;;5061841;28;20253;-71
2022/10/27 08:25:58;;;;;;;12.40;6.50;;;12.20;99.90;;;;;;5052934;28;20220;-71
2022/10/27 08:28:26;;;;;;;14.90;7.10;;;12.20;99.90;;;;;;5053837;28;20245;-71
2022/10/27 08:30:53;;;;;;;12.90;6.77;;;12.20;99.90;;;;;;5057937;28;20610;-71
2022/10/27 08:33:20;;;;;;;18.33;7.20;;;12.30;99.90;;;;;;5053596;28;20215;-72
2022/10/27 08:35:47;;;;;;;13.30;7.00;;;12.30;99.90;;;;;;5059619;28;20677;-70
2022/10/27 08:38:15;;;;;;;13.83;6.70;;;12.30;99.90;;;;;;5054591;28;20228;-71
2022/10/27 08:40:51;;;;;;;15.87;7.07;;;12.20;99.90;;;;;;5053679;28;20208;-72
2022/10/27 08:43:48;;;;;;;18.90;7.10;;;12.10;99.90;;;;;;5053517;28;20211;-71
2022/10/27 08:46:24;;;;;;;17.47;6.50;;;12.10;99.90;;;;;;5052421;28;20237;-70
2022/10/27 08:48:55;;;;;;;13.83;6.10;;;12.20;99.90;;;;;;5057190;28;20207;-71
2022/10/27 08:51:23;;;;;;;18.67;6.50;;;12.30;99.90;;;;;;5072994;28;20208;-71
2022/10/27 08:53:54;;;;;;;17.37;6.60;;;12.30;99.90;;;;;;5073362;28;20201;-73
2022/10/27 08:56:23;;;;;;;19.73;6.50;;;12.40;99.90;;;;;;5073251;28;20213;-71
2022/10/27 08:58:50;;;;;;;16.60;6.77;;;12.40;99.90;;;;;;5072499;28;20701;-69
2022/10/27 09:01:33;;;;;;;16.60;7.47;;;12.50;99.90;;;;;;5058116;28;20197;-70
2022/10/27 09:04:22;;;;;;;11.93;7.03;;;12.50;99.90;;;;;;5052915;28;20204;-72
2022/10/27 09:07:02;;;;;;;18.70;7.27;;;12.50;99.90;;;;;;5052553;28;20197;-69
2022/10/27 09:09:40;;;;;;;14.67;9.33;;;12.60;99.90;;;;;;5052671;28;20189;-69
2022/10/27 09:12:17;;;;;;;14.83;6.93;;;12.70;99.90;;;;;;5052766;28;20227;-68
2022/10/27 09:15:07;;;;;;;10.23;6.47;;;12.70;99.90;;;;;;5053224;28;20539;-69
2022/10/27 09:17:39;;;;;;;10.27;6.43;;;12.70;99.90;;;;;;5052830;28;20271;-68
2022/10/27 09:20:16;;;;;;;11.97;6.63;;;12.70;99.90;;;;;;5052164;28;20201;-68
2022/10/27 09:22:43;;;;;;;13.53;6.40;;;12.70;99.90;;;;;;5054534;28;20205;-72
2022/10/27 09:25:18;;;;;;;15.47;7.03;;;12.80;99.90;;;;;;5055085;28;20235;-69
2022/10/27 09:27:48;;;;;;;12.87;6.20;;;12.80;99.90;;;;;;5052320;28;20241;-69
2022/10/27 09:30:16;;;;;;;9.90;6.33;;;12.80;99.90;;;;;;5052484;28;20328;-70
2022/10/27 09:32:48;;;;;;;13.60;6.30;;;12.80;99.90;;;;;;5052380;28;20569;-67
2022/10/27 09:35:16;;;;;;;10.50;5.93;;;12.80;99.90;;;;;;5053509;28;20216;-67
2022/10/27 09:37:44;;;;;;;9.80;5.70;;;12.80;99.90;;;;;;5052173;28;20215;-68
2022/10/27 09:40:12;;;;;;;8.70;5.50;;;12.80;99.90;;;;;;5052091;28;20584;-71
2022/10/27 09:42:39;;;;;;;15.70;6.07;;;12.80;99.90;;;;;;5059378;28;20208;-69
2022/10/27 09:45:14;;;;;;;12.10;6.10;;;12.80;99.90;;;;;;5063222;28;20705;-69
2022/10/27 09:47:43;;;;;;;12.97;6.53;;;12.80;99.90;;;;;;5060139;28;20526;-69
2022/10/27 09:50:18;;;;;;;13.67;6.60;;;12.90;99.90;;;;;;5066358;28;20227;-67
2022/10/27 09:52:45;;;;;;;13.70;5.83;;;12.90;99.90;;;;;;5068773;28;20590;-69
2022/10/27 09:55:12;;;;;;;12.67;6.30;;;13.00;99.90;;;;;;5064116;28;20213;-70
2022/10/27 09:57:41;;;;;;;10.97;6.20;;;13.00;99.90;;;;;;5057585;28;20231;-71
2022/10/27 10:00:24;;;;;;;20.60;11.00;;;13.10;99.90;;;;;;5065277;28;20201;-70
2022/10/27 10:03:00;;;;;;;14.07;6.90;;;13.10;99.90;;;;;;5054030;28;20196;-69
2022/10/27 10:05:30;;;;;;;13.40;6.53;;;13.20;99.90;;;;;;5054848;28;20250;-71
2022/10/27 10:08:13;;;;;;;11.27;6.10;;;13.30;99.90;;;;;;5069685;28;20300;-69
2022/10/27 10:10:52;;;;;;;10.47;5.90;;;13.30;99.90;;;;;;5065166;28;20263;-70
2022/10/27 10:13:22;;;;;;;16.17;7.57;;;13.30;99.90;;;;;;5072014;28;20197;-68
2022/10/27 10:16:06;;;;;;;13.43;6.80;;;13.30;99.90;;;;;;5070623;28;20232;-69
2022/10/27 10:18:35;;;;;;;14.60;6.27;;;13.30;99.90;;;;;;5052585;28;20225;-70
2022/10/27 10:21:06;;;;;;;10.83;5.90;;;13.30;99.90;;;;;;5055571;28;20232;-71
2022/10/27 15:22:29;;;;;;;15.17;8.30;;;13.30;99.90;;;;;;5070268;28;1369017;-69
2022/10/27 15:24:58;;;;;;;14.60;7.60;;;13.30;99.90;;;;;;5108039;28;20258;-69
2022/10/27 15:27:29;;;;;;;13.63;7.30;;;13.30;99.90;;;;;;5108327;28;20656;-69
2022/10/27 15:29:56;;;;;;;13.13;7.33;;;13.30;99.90;;;;;;5107938;28;20286;-69
2022/10/27 15:32:28;;;;;;;12.20;7.60;;;13.20;99.90;;;;;;5100090;28;20214;-69
2022/10/27 15:34:55;;;;;;;11.67;7.67;;;13.20;99.90;;;;;;5103174;28;20216;-68
2022/10/27 15:37:29;;;;;;;14.13;7.60;;;13.20;99.90;;;;;;5087752;28;20211;-71
2022/10/27 15:40:18;;;;;;;14.43;7.70;;;13.20;99.90;;;;;;5087410;28;20200;-70
2022/10/27 15:42:45;;;;;;;14.63;6.50;;;13.20;99.90;;;;;;5086728;28;20653;-70
2022/10/27 15:45:32;;;;;;;13.97;7.07;;;13.10;99.90;;;;;;5078901;28;20216;-71
2022/10/27 15:48:00;;;;;;;17.50;7.97;;;13.10;99.90;;;;;;5085669;28;20631;-70
2022/10/27 15:50:33;;;;;;;14.90;9.23;;;13.10;99.90;;;;;;5067576;28;20569;-69
2022/10/27 15:53:13;;;;;;;13.13;7.00;;;13.10;99.90;;;;;;5067561;28;20201;-70
2022/10/27 15:55:44;;;;;;;11.90;7.10;;;13.10;99.90;;;;;;5059640;28;20205;-68
2022/10/27 15:58:28;;;;;;;14.27;7.33;;;13.10;99.90;;;;;;5057159;28;20297;-70
2022/10/27 16:01:08;;;;;;;13.30;7.37;;;13.10;99.90;;;;;;5066009;28;20204;-68
2022/10/27 16:03:41;;;;;;;11.90;7.20;;;13.00;99.90;;;;;;5057438;28;20185;-69
2022/10/27 16:06:22;;;;;;;12.87;7.50;;;13.00;99.90;;;;;;5054170;28;20194;-68
2022/10/27 16:08:50;;;;;;;14.47;7.77;;;13.00;99.90;;;;;;5054185;28;20194;-68
2022/10/27 16:11:20;;;;;;;11.37;7.47;;;12.90;99.90;;;;;;5054411;28;20304;-69
2022/10/27 16:13:50;;;;;;;15.60;8.10;;;12.90;99.90;;;;;;5069556;28;20311;-70
2022/10/27 16:16:17;;;;;;;15.73;6.77;;;13.00;99.90;;;;;;5074627;28;20204;-69
2022/10/27 16:18:44;;;;;;;14.40;7.30;;;12.90;99.90;;;;;;5060941;28;20288;-69
2022/10/27 16:21:20;;;;;;;11.57;7.57;;;13.00;99.90;;;;;;5064780;28;20595;-69
2022/10/27 16:23:47;;;;;;;13.40;7.60;;;13.00;99.90;;;;;;5073926;28;20228;-70
2022/10/27 16:26:15;;;;;;;15.50;7.63;;;13.00;99.90;;;;;;5061400;28;20566;-70
2022/10/27 16:28:44;;;;;;;14.10;8.27;;;13.00;99.90;;;;;;5061898;28;20231;-67
2022/10/27 16:31:15;;;;;;;12.73;7.83;;;13.00;99.90;;;;;;5061337;28;20718;-69
2022/10/27 16:33:42;;;;;;;15.63;7.50;;;13.00;99.90;;;;;;5061309;28;20221;-69
2022/10/27 16:36:12;;;;;;;12.17;8.03;;;13.00;99.90;;;;;;5059448;28;20196;-69
2022/10/27 16:38:39;;;;;;;14.90;7.30;;;13.00;99.90;;;;;;5056880;28;20771;-70
2022/10/27 16:41:06;;;;;;;12.40;7.23;;;13.00;99.90;;;;;;5064662;28;20205;-68
2022/10/27 16:43:35;;;;;;;13.53;7.97;;;13.00;99.90;;;;;;5054111;28;20727;-71
2022/10/27 16:46:04;;;;;;;12.93;7.77;;;13.00;99.90;;;;;;5053714;28;20563;-69
2022/10/27 16:48:31;;;;;;;14.07;7.97;;;13.00;99.90;;;;;;5060724;28;20196;-69
2022/10/27 16:50:58;;;;;;;12.97;8.20;;;13.00;99.90;;;;;;5060111;28;20205;-69
2022/10/27 16:53:25;;;;;;;13.87;8.23;;;13.00;99.90;;;;;;5057164;28;20284;-68
2022/10/27 16:55:59;;;;;;;15.27;7.97;;;13.00;99.90;;;;;;5063277;28;20561;-68
2022/10/27 16:58:26;;;;;;;15.30;8.47;;;13.00;99.90;;;;;;5054397;28;20207;-69
2022/10/27 17:00:52;;;;;;;12.97;8.23;;;13.00;99.90;;;;;;5053509;28;20209;-70
2022/10/27 17:03:21;;;;;;;13.77;8.30;;;12.90;99.90;;;;;;5057078;28;20581;-70
2022/10/27 17:05:47;;;;;;;13.67;8.47;;;12.90;99.90;;;;;;5069225;28;20215;-70
2022/10/27 17:08:14;;;;;;;13.13;8.73;;;12.90;99.90;;;;;;5060282;28;20201;-70
2022/10/27 17:10:41;;;;;;;14.27;8.13;;;12.80;99.90;;;;;;5057517;28;20198;-72
2022/10/27 17:13:08;;;;;;;14.07;9.43;;;12.80;99.90;;;;;;5062544;28;20212;-69
2022/10/27 17:15:36;;;;;;;12.63;8.43;;;12.80;99.90;;;;;;5066844;28;20224;-70
2022/10/27 17:18:03;;;;;;;13.97;8.80;;;12.80;99.90;;;;;;5057845;28;20574;-69
2022/10/27 17:20:31;;;;;;;18.20;9.00;;;12.80;99.90;;;;;;5060819;28;20200;-72
2022/10/27 17:23:00;;;;;;;16.97;8.83;;;12.80;99.90;;;;;;5061026;28;20256;-71
2022/10/27 17:25:27;;;;;;;13.30;8.03;;;12.80;99.90;;;;;;5058014;28;20205;-69
2022/10/27 17:27:54;;;;;;;13.10;8.40;;;12.80;99.90;;;;;;5069353;28;20259;-68
2022/10/27 17:30:21;;;;;;;15.87;9.17;;;12.80;99.90;;;;;;5069399;28;20198;-69
2022/10/27 17:32:48;;;;;;;19.70;10.60;;;12.80;99.90;;;;;;5052438;28;20210;-68
2022/10/27 17:35:16;;;;;;;20.33;9.60;;;12.80;99.90;;;;;;5052264;28;20239;-71
2022/10/27 17:37:44;;;;;;;15.10;8.73;;;12.80;99.90;;;;;;5053125;28;20304;-69
2022/10/27 17:40:12;;;;;;;15.57;8.67;;;12.80;99.90;;;;;;5052634;28;20213;-69
2022/10/27 17:42:39;;;;;;;14.77;8.63;;;12.80;99.90;;;;;;5065200;28;20352;-70
2022/10/27 17:45:07;;;;;;;13.23;8.07;;;12.80;99.90;;;;;;5073074;28;20701;-71
2022/10/27 21:54:14;;;;;;;20.40;11.00;;;11.00;99.90;;;;;;5088521;28;20269;-68
2022/10/27 21:56:42;;;;;;;19.20;10.07;;;11.60;99.90;;;;;;5088926;28;20291;-66
2022/10/27 21:59:09;;;;;;;19.27;10.57;;;11.70;99.90;;;;;;5088466;28;20653;-69
2022/10/27 22:01:36;;;;;;;14.10;9.70;;;11.80;99.90;;;;;;5088552;28;20669;-69
2022/10/27 22:04:04;;;;;;;16.63;9.70;;;11.80;99.90;;;;;;5088863;28;20200;-67
2022/10/27 22:06:32;;;;;;;17.37;9.90;;;11.80;99.90;;;;;;5088533;28;20203;-68
2022/10/27 22:09:00;;;;;;;15.27;10.23;;;11.80;99.90;;;;;;5088953;28;20226;-66
2022/10/27 22:11:30;;;;;;;14.23;9.77;;;11.90;99.90;;;;;;5088138;28;20208;-68
2022/10/27 22:13:57;;;;;;;15.13;9.30;;;11.90;99.90;;;;;;5088857;28;20200;-68
2022/10/27 22:16:25;;;;;;;14.93;9.60;;;11.90;99.90;;;;;;5088542;28;20208;-67
2022/10/27 22:18:53;;;;;;;21.03;10.17;;;12.00;99.90;;;;;;5088836;28;20211;-69
2022/10/27 22:21:21;;;;;;;16.80;10.10;;;12.00;99.90;;;;;;5087388;28;20205;-68
2022/10/27 22:23:48;;;;;;;19.07;10.53;;;12.00;99.90;;;;;;5088335;28;20207;-67
2022/10/27 22:26:17;;;;;;;18.10;9.97;;;12.00;99.90;;;;;;5088496;28;20205;-68
2022/10/27 22:28:46;;;;;;;13.70;9.27;;;11.90;99.90;;;;;;5088479;28;20207;-67
2022/10/27 22:31:14;;;;;;;15.43;9.53;;;12.00;99.90;;;;;;5088231;28;20215;-67
2022/10/27 22:33:41;;;;;;;16.33;10.23;;;12.00;99.90;;;;;;5088361;28;20231;-68
2022/10/27 22:36:10;;;;;;;19.63;9.60;;;12.00;99.90;;;;;;5088195;28;20211;-68
2022/10/27 22:38:38;;;;;;;14.50;9.80;;;12.00;99.90;;;;;;5088179;28;20204;-68
2022/10/27 22:41:07;;;;;;;15.40;10.17;;;12.00;99.90;;;;;;5088035;28;20201;-67
2022/10/27 22:43:34;;;;;;;19.77;9.57;;;11.90;99.90;;;;;;5087884;28;20231;-68
2022/10/27 22:46:03;;;;;;;17.17;9.70;;;12.00;99.90;;;;;;5088373;28;20204;-69
2022/10/27 22:48:31;;;;;;;15.77;9.83;;;11.90;99.90;;;;;;5087800;28;20212;-68
2022/10/27 22:50:59;;;;;;;15.10;9.60;;;11.90;99.90;;;;;;5087862;28;20204;-68
2022/10/27 22:53:29;;;;;;;17.73;9.90;;;12.00;99.90;;;;;;5083531;28;20233;-67
2022/10/27 22:55:55;;;;;;;15.87;9.23;;;12.00;99.90;;;;;;5074487;28;20204;-66
2022/10/27 22:58:22;;;;;;;15.13;9.87;;;11.90;99.90;;;;;;5074035;28;20235;-68
2022/10/27 23:00:49;;;;;;;16.63;10.60;;;12.00;99.90;;;;;;5074444;28;20207;-67
2022/10/27 23:03:17;;;;;;;14.73;9.70;;;12.00;99.90;;;;;;5074001;28;20201;-68
2022/10/27 23:05:44;;;;;;;16.23;8.93;;;11.90;99.90;;;;;;5074386;28;20208;-67
2022/10/27 23:08:11;;;;;;;14.80;8.93;;;12.00;99.90;;;;;;5074036;28;20201;-67
2022/10/27 23:10:38;;;;;;;14.93;9.63;;;12.00;99.90;;;;;;5074073;28;20209;-69
2022/10/27 23:13:04;;;;;;;15.33;9.43;;;12.00;99.90;;;;;;5073733;28;20243;-67
2022/10/27 23:15:31;;;;;;;16.47;10.27;;;12.00;99.90;;;;;;5074150;28;20201;-67
2022/10/27 23:17:58;;;;;;;16.13;10.43;;;12.00;99.90;;;;;;5074025;28;20567;-67
2022/10/27 23:20:26;;;;;;;15.30;9.63;;;12.00;99.90;;;;;;5073763;28;20574;-67
2022/10/27 23:22:53;;;;;;;18.87;10.07;;;11.90;99.90;;;;;;5073983;28;20205;-67
2022/10/27 23:25:19;;;;;;;16.23;9.77;;;11.90;99.90;;;;;;5073467;28;20201;-68
2022/10/27 23:27:46;;;;;;;13.90;9.00;;;11.90;99.90;;;;;;5073653;28;20201;-68
2022/10/27 23:30:13;;;;;;;18.37;10.20;;;11.80;99.90;;;;;;5073295;28;20208;-67
2022/10/27 23:32:40;;;;;;;15.23;10.07;;;11.80;99.90;;;;;;5073758;28;20223;-67
2022/10/27 23:35:08;;;;;;;13.37;9.20;;;11.80;99.90;;;;;;5073413;28;20209;-67
2022/10/27 23:37:36;;;;;;;14.67;9.60;;;11.80;99.90;;;;;;5073646;28;20674;-67
2022/10/27 23:40:03;;;;;;;16.27;9.60;;;11.90;99.90;;;;;;5073558;28;20665;-68
2022/10/27 23:42:30;;;;;;;16.03;9.80;;;11.90;99.90;;;;;;5073540;28;20220;-67
2022/10/27 23:44:57;;;;;;;15.57;9.40;;;11.90;99.90;;;;;;5073526;28;20215;-67
2022/10/27 23:47:23;;;;;;;15.97;9.93;;;11.90;99.90;;;;;;5073106;28;20211;-67
2022/10/27 23:49:50;;;;;;;17.40;10.60;;;11.90;99.90;;;;;;5073524;28;20208;-67
2022/10/27 23:52:17;;;;;;;14.83;10.00;;;11.90;99.90;;;;;;5072855;28;20243;-67
2022/10/27 23:54:45;;;;;;;18.30;10.27;;;11.90;99.90;;;;;;5073334;28;20216;-66
2022/10/27 23:57:12;;;;;;;15.17;9.77;;;11.90;99.90;;;;;;5073330;28;20209;-68
2022/10/27 23:59:39;;;;;;;19.27;9.53;;;11.80;99.90;;;;;;5073251;28;20204;-67
